Station History

Weather Underground - logo

Station Historical Data
Daily Summary for September 2, 2017 Units:  English    Metric   Both
« Previous Day
Next Day »
Daily Weekly Monthly Yearly Custom
  High: Low: Average:
Temperature: 101.7 °F 71.6 °F 86 °F
Dew Point: 75.2 °F 57.5 °F 66.6 °F
Humidity: 80 % 29 % 55 %
Wind Speed: 4.0 mph 0.0 mph 0.6 mph
Wind Gust: 4.0 mph - -
Wind:- - SSW
Pressure: 29.80 in 29.68 in -
Precipitation: 0.00 in    
Historical Graphs
 
 
Tabular Data for September 2, 2017
Time Temperature Dew Point Pressure Wind Wind Speed Wind Gust Humidity Rainfall Rate (Hourly)
00:02 81.0 °F 64.8 °F 29.74 in Calm     58 % 0.00 in
00:07 81.1 °F 64.9 °F 29.74 in Calm     58 % 0.00 in
00:12 81.2 °F 64.5 °F 29.74 in Calm     57 % 0.00 in
00:17 81.1 °F 64.9 °F 29.74 in Calm     58 % 0.00 in
00:22 81.2 °F 65.0 °F 29.74 in Calm     58 % 0.00 in
00:27 81.0 °F 65.3 °F 29.74 in NNE 1.2 mph   59 % 0.00 in
00:32 80.7 °F 65.0 °F 29.74 in Calm     59 % 0.00 in
00:37 80.3 °F 65.1 °F 29.75 in Calm     60 % 0.00 in
00:42 79.9 °F 65.2 °F 29.75 in Calm     61 % 0.00 in
00:47 79.5 °F 65.8 °F 29.75 in ESE 1.2 mph 1.2 mph 63 % 0.00 in
00:52 79.3 °F 65.1 °F 29.75 in East 2.3 mph 2.3 mph 62 % 0.00 in
00:55 79.2 °F 65.5 °F 29.75 in SE 1.2 mph   63 % 0.00 in
01:00 79.0 °F 64.9 °F 29.75 in ESE 1.2 mph 1.2 mph 62 % 0.00 in
01:05 79.2 °F 64.6 °F 29.74 in SE 1.2 mph   61 % 0.00 in
01:10 79.4 °F 64.3 °F 29.74 in Calm     60 % 0.00 in
01:15 79.5 °F 64.4 °F 29.74 in Calm     60 % 0.00 in
01:20 79.4 °F 65.7 °F 29.74 in Calm   0.1 mph 63 % 0.00 in
01:25 78.9 °F 65.7 °F 29.74 in Calm     64 % 0.00 in
01:30 78.6 °F 64.9 °F 29.74 in Calm     63 % 0.00 in
01:31 78.5 °F 65.8 °F 29.75 in Calm     65 % 0.00 in
01:36 78.0 °F 65.7 °F 29.75 in Calm     66 % 0.00 in
01:41 77.2 °F 65.4 °F 29.75 in Calm     67 % 0.00 in
01:46 76.7 °F 64.9 °F 29.75 in Calm   0.2 mph 67 % 0.00 in
01:52 76.5 °F 64.7 °F 29.75 in SE 1.2 mph   67 % 0.00 in
01:57 76.3 °F 65.0 °F 29.75 in SSE 1.2 mph   68 % 0.00 in
02:02 76.2 °F 64.9 °F 29.75 in Calm     68 % 0.00 in
02:07 76.2 °F 64.9 °F 29.75 in SE 1.2 mph   68 % 0.00 in
02:12 76.2 °F 64.9 °F 29.75 in SE 1.2 mph 1.2 mph 68 % 0.00 in
02:17 76.2 °F 64.9 °F 29.75 in Calm     68 % 0.00 in
02:22 76.0 °F 64.7 °F 29.75 in Calm     68 % 0.00 in
02:27 75.8 °F 64.5 °F 29.75 in SE 1.2 mph   68 % 0.00 in
02:32 75.6 °F 64.7 °F 29.75 in Calm     69 % 0.00 in
02:37 75.5 °F 64.6 °F 29.75 in Calm     69 % 0.00 in
02:42 75.5 °F 64.6 °F 29.75 in Calm     69 % 0.00 in
02:47 75.4 °F 64.1 °F 29.75 in Calm     68 % 0.00 in
02:52 75.3 °F 64.0 °F 29.75 in Calm     68 % 0.00 in
02:57 75.3 °F 64.0 °F 29.75 in Calm     68 % 0.00 in
03:02 75.1 °F 63.8 °F 29.75 in Calm     68 % 0.00 in
03:07 75.1 °F 63.4 °F 29.75 in Calm     67 % 0.00 in
03:12 75.7 °F 63.1 °F 29.74 in Calm     65 % 0.00 in
03:17 76.5 °F 63.0 °F 29.74 in Calm     63 % 0.00 in
03:22 77.2 °F 62.7 °F 29.74 in Calm     61 % 0.00 in
03:27 77.8 °F 63.7 °F 29.74 in Calm     62 % 0.00 in
03:32 77.6 °F 63.1 °F 29.74 in Calm     61 % 0.00 in
03:37 77.3 °F 65.5 °F 29.74 in Calm     67 % 0.00 in
03:42 76.7 °F 65.3 °F 29.74 in Calm     68 % 0.00 in
03:47 76.3 °F 65.0 °F 29.74 in Calm     68 % 0.00 in
03:52 75.9 °F 64.2 °F 29.74 in Calm     67 % 0.00 in
03:57 75.8 °F 64.5 °F 29.74 in Calm     68 % 0.00 in
04:02 75.7 °F 65.2 °F 29.74 in Calm     70 % 0.00 in
04:07 75.5 °F 65.4 °F 29.74 in Calm     71 % 0.00 in
04:12 75.1 °F 65.9 °F 29.74 in Calm     73 % 0.00 in
04:17 74.8 °F 65.6 °F 29.74 in Calm     73 % 0.00 in
04:22 74.6 °F 65.4 °F 29.74 in Calm     73 % 0.00 in
04:27 74.5 °F 65.3 °F 29.74 in Calm     73 % 0.00 in
04:32 74.5 °F 65.7 °F 29.74 in Calm     74 % 0.00 in
04:37 74.5 °F 65.7 °F 29.74 in Calm     74 % 0.00 in
04:42 74.4 °F 65.2 °F 29.74 in Calm     73 % 0.00 in
04:47 74.4 °F 65.2 °F 29.74 in Calm     73 % 0.00 in
04:52 74.4 °F 65.6 °F 29.74 in Calm     74 % 0.00 in
04:57 74.1 °F 65.3 °F 29.74 in Calm     74 % 0.00 in
05:02 74.0 °F 65.2 °F 29.74 in Calm     74 % 0.00 in
05:07 73.8 °F 65.0 °F 29.74 in Calm     74 % 0.00 in
05:12 73.7 °F 65.3 °F 29.74 in Calm     75 % 0.00 in
05:17 73.5 °F 65.5 °F 29.75 in Calm     76 % 0.00 in
05:22 73.3 °F 65.7 °F 29.75 in Calm     77 % 0.00 in
05:27 73.1 °F 65.8 °F 29.75 in Calm     78 % 0.00 in
05:32 72.9 °F 65.6 °F 29.75 in Calm     78 % 0.00 in
05:37 72.7 °F 65.8 °F 29.75 in Calm     79 % 0.00 in
05:42 72.6 °F 65.7 °F 29.75 in Calm     79 % 0.00 in
05:47 72.7 °F 64.7 °F 29.75 in Calm     76 % 0.00 in
05:52 73.0 °F 64.6 °F 29.75 in Calm     75 % 0.00 in
05:58 73.1 °F 65.1 °F 29.75 in Calm     76 % 0.00 in
06:03 72.9 °F 64.5 °F 29.75 in Calm     75 % 0.00 in
06:08 72.7 °F 64.7 °F 29.76 in Calm     76 % 0.00 in
06:13 72.5 °F 65.2 °F 29.76 in Calm     78 % 0.00 in
06:18 72.2 °F 65.0 °F 29.76 in Calm     78 % 0.00 in
06:23 71.9 °F 64.7 °F 29.76 in Calm     78 % 0.00 in
06:28 71.9 °F 64.7 °F 29.76 in Calm     78 % 0.00 in
06:33 71.8 °F 64.6 °F 29.76 in Calm     78 % 0.00 in
06:38 71.9 °F 64.7 °F 29.76 in Calm     78 % 0.00 in
06:43 71.6 °F 65.1 °F 29.76 in Calm     80 % 0.00 in
06:48 71.6 °F 65.1 °F 29.77 in Calm   0.1 mph 80 % 0.00 in
06:53 71.7 °F 65.2 °F 29.77 in Calm     80 % 0.00 in
06:58 71.8 °F 64.9 °F 29.77 in Calm     79 % 0.00 in
07:03 72.0 °F 65.1 °F 29.77 in Calm     79 % 0.00 in
07:08 72.2 °F 65.0 °F 29.77 in Calm     78 % 0.00 in
07:13 72.3 °F 65.1 °F 29.77 in Calm     78 % 0.00 in
07:18 72.4 °F 65.2 °F 29.77 in Calm     78 % 0.00 in
07:23 72.5 °F 64.9 °F 29.77 in Calm     77 % 0.00 in
07:28 72.8 °F 64.8 °F 29.78 in Calm     76 % 0.00 in
07:33 73.2 °F 63.6 °F 29.78 in Calm     72 % 0.00 in
07:38 73.9 °F 63.5 °F 29.78 in Calm     70 % 0.00 in
07:43 74.5 °F 64.9 °F 29.78 in Calm     72 % 0.00 in
07:48 75.0 °F 62.9 °F 29.78 in Calm     66 % 0.00 in
07:53 75.6 °F 62.1 °F 29.78 in Calm     63 % 0.00 in
07:58 76.4 °F 62.9 °F 29.78 in Calm     63 % 0.00 in
08:03 77.2 °F 63.2 °F 29.78 in Calm     62 % 0.00 in
08:08 77.9 °F 62.9 °F 29.78 in SE 1.2 mph   60 % 0.00 in
08:13 78.6 °F 63.6 °F 29.78 in Calm     60 % 0.00 in
08:18 79.4 °F 64.8 °F 29.78 in Calm     61 % 0.00 in
08:23 80.1 °F 65.0 °F 29.78 in Calm     60 % 0.00 in
08:28 80.6 °F 64.9 °F 29.78 in SE 1.2 mph   59 % 0.00 in
08:33 81.1 °F 64.4 °F 29.79 in SE 1.2 mph   57 % 0.00 in
08:38 81.6 °F 64.9 °F 29.79 in Calm     57 % 0.00 in
08:43 82.0 °F 64.8 °F 29.79 in ESE 1.2 mph 1.2 mph 56 % 0.00 in
08:48 82.1 °F 65.4 °F 29.79 in SE 1.2 mph   57 % 0.00 in
08:53 82.4 °F 65.1 °F 29.79 in SE 1.2 mph 1.2 mph 56 % 0.00 in
08:58 82.6 °F 65.3 °F 29.79 in Calm     56 % 0.00 in
09:03 83.0 °F 65.7 °F 29.79 in SE 1.2 mph   56 % 0.00 in
09:08 83.3 °F 66.0 °F 29.79 in SSE 1.2 mph 1.2 mph 56 % 0.00 in
09:13 83.8 °F 65.4 °F 29.79 in Calm     54 % 0.00 in
09:18 84.3 °F 66.4 °F 29.79 in SSE 2.0 mph 2.0 mph 55 % 0.00 in
09:23 84.4 °F 64.9 °F 29.79 in ESE 1.2 mph 1.2 mph 52 % 0.00 in
09:28 84.6 °F 65.6 °F 29.79 in Calm     53 % 0.00 in
09:33 85.1 °F 65.5 °F 29.79 in Calm   0.2 mph 52 % 0.00 in
09:38 85.5 °F 65.3 °F 29.79 in SE 1.2 mph 1.2 mph 51 % 0.00 in
09:43 85.9 °F 65.7 °F 29.79 in Calm     51 % 0.00 in
09:44 85.9 °F 66.2 °F 29.80 in Calm     52 % 0.00 in
09:49 86.3 °F 66.6 °F 29.80 in South 2.0 mph 2.0 mph 52 % 0.00 in
09:54 86.5 °F 66.2 °F 29.80 in SSW 2.3 mph 2.3 mph 51 % 0.00 in
09:59 86.7 °F 67.0 °F 29.80 in Calm     52 % 0.00 in
10:04 87.1 °F 66.2 °F 29.79 in SSE 1.2 mph 1.2 mph 50 % 0.00 in
10:09 87.4 °F 65.3 °F 29.79 in ESE 1.2 mph 1.2 mph 48 % 0.00 in
10:14 87.5 °F 66.0 °F 29.79 in SE 1.2 mph 1.2 mph 49 % 0.00 in
10:19 88.1 °F 66.5 °F 29.79 in Calm     49 % 0.00 in
10:24 88.7 °F 66.5 °F 29.79 in SE 2.3 mph 2.3 mph 48 % 0.00 in
10:29 88.8 °F 66.6 °F 29.79 in SE 1.2 mph 1.2 mph 48 % 0.00 in
10:34 88.8 °F 66.6 °F 29.79 in Calm     48 % 0.00 in
10:39 89.4 °F 66.5 °F 29.79 in Calm   0.3 mph 47 % 0.00 in
10:44 89.9 °F 66.3 °F 29.79 in South 1.2 mph 1.2 mph 46 % 0.00 in
10:50 90.5 °F 66.9 °F 29.79 in SSE 1.2 mph 1.2 mph 46 % 0.00 in
10:57 91.0 °F 67.3 °F 29.79 in SE 2.3 mph 2.3 mph 46 % 0.00 in
11:02 91.6 °F 67.9 °F 29.78 in ESE 2.3 mph 2.3 mph 46 % 0.00 in
11:07 91.9 °F 68.2 °F 29.78 in Calm   0.2 mph 46 % 0.00 in
11:12 92.2 °F 67.8 °F 29.78 in SE 2.3 mph   45 % 0.00 in
11:17 92.3 °F 66.6 °F 29.78 in SSE 1.2 mph 1.2 mph 43 % 0.00 in
11:18 92.3 °F 66.6 °F 29.78 in SSE 1.2 mph 1.2 mph 43 % 0.00 in
11:22 92.3 °F 66.6 °F 29.78 in SSE 1.2 mph 1.2 mph 43 % 0.00 in
11:27 92.3 °F 66.6 °F 29.78 in SSE 1.2 mph 1.2 mph 43 % 0.00 in
13:55 100.1 °F 66.7 °F 29.74 in NNW 4.0 mph 4.0 mph 34 % 0.00 in
14:00 100.7 °F 64.5 °F 29.74 in SE 3.0 mph 3.0 mph 31 % 0.00 in
14:05 101.1 °F 65.8 °F 29.74 in SSE 2.3 mph 2.3 mph 32 % 0.00 in
14:10 101.2 °F 65.9 °F 29.73 in SE 1.2 mph   32 % 0.00 in
14:15 101.4 °F 68.7 °F 29.73 in SE 1.2 mph   35 % 0.00 in
14:20 101.6 °F 66.2 °F 29.73 in NW 1.2 mph 1.2 mph 32 % 0.00 in
14:25 101.7 °F 67.2 °F 29.73 in Calm     33 % 0.00 in
14:30 101.2 °F 66.8 °F 29.73 in WNW 1.2 mph 1.2 mph 33 % 0.00 in
14:35 100.6 °F 64.5 °F 29.73 in WNW 1.2 mph 1.2 mph 31 % 0.00 in
14:40 100.8 °F 65.5 °F 29.73 in NW 1.2 mph 1.2 mph 32 % 0.00 in
14:45 100.5 °F 63.4 °F 29.72 in NW 1.2 mph 1.2 mph 30 % 0.00 in
14:50 100.5 °F 65.3 °F 29.72 in NNW 1.2 mph 1.2 mph 32 % 0.00 in
14:55 100.6 °F 65.4 °F 29.72 in WNW 1.2 mph   32 % 0.00 in
15:00 100.7 °F 62.6 °F 29.71 in WNW 1.2 mph   29 % 0.00 in
15:06 100.8 °F 64.6 °F 29.71 in WSW 1.2 mph 1.2 mph 31 % 0.00 in
15:11 100.3 °F 65.1 °F 29.71 in WNW 1.2 mph 1.2 mph 32 % 0.00 in
15:16 100.1 °F 65.8 °F 29.71 in Calm     33 % 0.00 in
15:21 100.2 °F 66.8 °F 29.70 in WNW 1.2 mph 1.2 mph 34 % 0.00 in
15:26 100.4 °F 67.8 °F 29.70 in Calm     35 % 0.00 in
15:31 100.7 °F 68.9 °F 29.70 in WNW 1.2 mph 1.2 mph 36 % 0.00 in
15:36 100.9 °F 67.4 °F 29.70 in WNW 1.2 mph 1.2 mph 34 % 0.00 in
15:41 100.8 °F 67.3 °F 29.70 in NW 2.3 mph 2.3 mph 34 % 0.00 in
15:46 100.7 °F 68.0 °F 29.69 in WNW 1.2 mph 1.2 mph 35 % 0.00 in
15:51 100.6 °F 69.6 °F 29.69 in WNW 1.2 mph 1.2 mph 37 % 0.00 in
15:56 100.5 °F 66.2 °F 29.69 in WNW 3.5 mph 3.5 mph 33 % 0.00 in
16:01 100.4 °F 65.2 °F 29.69 in NNW 2.3 mph 2.3 mph 32 % 0.00 in
16:06 100.3 °F 66.0 °F 29.69 in WNW 2.3 mph 2.3 mph 33 % 0.00 in
16:11 100.3 °F 66.0 °F 29.69 in WNW 2.3 mph 2.3 mph 33 % 0.00 in
16:16 100.4 °F 66.9 °F 29.69 in NW 2.3 mph 2.3 mph 34 % 0.00 in
16:21 100.3 °F 66.9 °F 29.69 in WNW 2.3 mph 2.3 mph 34 % 0.00 in
16:26 100.2 °F 68.4 °F 29.69 in NW 1.2 mph 1.2 mph 36 % 0.00 in
16:31 100.1 °F 67.5 °F 29.68 in WNW 1.2 mph 1.2 mph 35 % 0.00 in
16:36 100.0 °F 69.1 °F 29.68 in WNW 2.3 mph 2.3 mph 37 % 0.00 in
16:41 99.9 °F 67.3 °F 29.68 in NW 1.2 mph 1.2 mph 35 % 0.00 in
16:46 99.8 °F 67.3 °F 29.68 in NW 1.2 mph   35 % 0.00 in
16:51 99.8 °F 67.3 °F 29.68 in NW 1.2 mph   35 % 0.00 in
16:56 99.6 °F 68.7 °F 29.68 in Calm     37 % 0.00 in
17:01 99.6 °F 67.9 °F 29.68 in NNW 3.5 mph 3.5 mph 36 % 0.00 in
17:06 99.5 °F 69.4 °F 29.68 in NW 1.0 mph 1.0 mph 38 % 0.00 in
17:11 99.4 °F 69.3 °F 29.68 in NW 1.2 mph 1.2 mph 38 % 0.00 in
17:16 99.3 °F 69.2 °F 29.68 in NW 1.2 mph 1.2 mph 38 % 0.00 in
17:21 99.2 °F 69.1 °F 29.68 in NNW 1.2 mph 1.2 mph 38 % 0.00 in
17:26 99.1 °F 69.8 °F 29.68 in NW 1.2 mph   39 % 0.00 in
17:31 98.9 °F 69.6 °F 29.68 in NW 1.2 mph   39 % 0.00 in
17:36 98.9 °F 70.4 °F 29.68 in Calm     40 % 0.00 in
17:41 99.0 °F 70.5 °F 29.68 in Calm     40 % 0.00 in
17:46 98.9 °F 73.9 °F 29.68 in Calm     45 % 0.00 in
17:51 98.4 °F 74.1 °F 29.68 in Calm     46 % 0.00 in
17:56 98.2 °F 73.9 °F 29.68 in Calm     46 % 0.00 in
18:01 98.2 °F 73.9 °F 29.68 in Calm     46 % 0.00 in
18:06 97.7 °F 74.1 °F 29.69 in Calm     47 % 0.00 in
18:08 97.6 °F 73.3 °F 29.68 in Calm     46 % 0.00 in
18:13 97.5 °F 73.9 °F 29.69 in Calm     47 % 0.00 in
18:18 97.2 °F 73.6 °F 29.69 in Calm     47 % 0.00 in
18:23 96.7 °F 74.4 °F 29.68 in Calm     49 % 0.00 in
18:28 96.1 °F 73.2 °F 29.68 in Calm     48 % 0.00 in
18:33 96.0 °F 72.5 °F 29.68 in Calm     47 % 0.00 in
18:38 95.7 °F 71.6 °F 29.68 in Calm     46 % 0.00 in
18:43 95.5 °F 71.4 °F 29.69 in Calm     46 % 0.00 in
18:48 95.3 °F 71.9 °F 29.69 in Calm     47 % 0.00 in
18:53 94.8 °F 72.0 °F 29.69 in Calm     48 % 0.00 in
18:58 94.4 °F 75.2 °F 29.69 in Calm     54 % 0.00 in
19:03 93.7 °F 74.5 °F 29.69 in Calm     54 % 0.00 in
19:08 93.1 °F 74.0 °F 29.69 in Calm     54 % 0.00 in
19:13 92.5 °F 74.0 °F 29.69 in Calm     55 % 0.00 in
19:18 92.1 °F 73.1 °F 29.69 in Calm     54 % 0.00 in
19:23 92.0 °F 72.4 °F 29.69 in Calm     53 % 0.00 in
19:28 91.9 °F 72.9 °F 29.69 in Calm     54 % 0.00 in
19:33 91.6 °F 72.0 °F 29.69 in Calm     53 % 0.00 in
19:38 91.6 °F 70.9 °F 29.70 in Calm     51 % 0.00 in
19:43 92.2 °F 69.7 °F 29.70 in NW 1.2 mph   48 % 0.00 in
19:48 92.8 °F 71.4 °F 29.70 in Calm     50 % 0.00 in
19:53 92.4 °F 71.6 °F 29.70 in Calm     51 % 0.00 in
19:58 91.9 °F 71.8 °F 29.70 in Calm     52 % 0.00 in
20:03 91.1 °F 72.1 °F 29.70 in Calm     54 % 0.00 in
20:08 90.2 °F 70.2 °F 29.71 in Calm     52 % 0.00 in
20:14 89.9 °F 71.0 °F 29.71 in Calm     54 % 0.00 in
20:19 89.5 °F 70.7 °F 29.71 in Calm     54 % 0.00 in
20:21 89.5 °F 70.7 °F 29.71 in NW 1.0 mph   54 % 0.00 in
20:22 89.5 °F 70.1 °F 29.71 in NW 1.2 mph 1.2 mph 53 % 0.00 in
20:24 89.5 °F 69.5 °F 29.71 in NW 1.2 mph   52 % 0.00 in
20:27 89.6 °F 70.8 °F 29.71 in Calm     54 % 0.00 in
20:32 89.5 °F 69.5 °F 29.71 in Calm     52 % 0.00 in
20:37 89.8 °F 69.3 °F 29.71 in Calm     51 % 0.00 in
20:42 90.0 °F 68.3 °F 29.71 in Calm     49 % 0.00 in
20:47 90.4 °F 69.2 °F 29.71 in NW 1.2 mph 1.2 mph 50 % 0.00 in
20:52 90.4 °F 68.0 °F 29.71 in Calm     48 % 0.00 in
20:57 90.3 °F 68.5 °F 29.71 in Calm     49 % 0.00 in
21:02 90.4 °F 68.0 °F 29.71 in Calm     48 % 0.00 in
21:07 90.5 °F 67.5 °F 29.71 in Calm     47 % 0.00 in
21:12 90.2 °F 67.2 °F 29.71 in Calm     47 % 0.00 in
21:18 89.8 °F 66.9 °F 29.71 in Calm     47 % 0.00 in
21:23 90.1 °F 65.9 °F 29.71 in East 1.2 mph 1.2 mph 45 % 0.00 in
21:28 90.4 °F 65.5 °F 29.71 in Calm     44 % 0.00 in
21:33 90.3 °F 62.0 °F 29.72 in NE 1.2 mph 1.2 mph 39 % 0.00 in
21:38 91.5 °F 62.3 °F 29.71 in Calm     38 % 0.00 in
21:43 92.3 °F 58.2 °F 29.71 in WNW 1.2 mph 1.2 mph 32 % 0.00 in
21:48 92.9 °F 58.7 °F 29.71 in Calm     32 % 0.00 in
21:53 92.7 °F 57.6 °F 29.72 in Calm   0.5 mph 31 % 0.00 in
21:58 93.5 °F 58.3 °F 29.72 in Calm     31 % 0.00 in
22:03 93.6 °F 57.5 °F 29.73 in Calm     30 % 0.00 in
22:08 93.3 °F 59.9 °F 29.73 in SSE 1.0 mph 1.0 mph 33 % 0.00 in
22:13 91.3 °F 65.0 °F 29.74 in Calm   0.2 mph 42 % 0.00 in
22:18 89.6 °F 67.3 °F 29.74 in Calm     48 % 0.00 in
22:23 88.3 °F 67.9 °F 29.74 in SSE 1.2 mph 1.2 mph 51 % 0.00 in
22:29 87.2 °F 68.0 °F 29.75 in SE 1.2 mph 1.2 mph 53 % 0.00 in
22:34 86.2 °F 67.6 °F 29.75 in ESE 2.3 mph 2.3 mph 54 % 0.00 in
22:39 85.6 °F 67.6 °F 29.74 in Calm     55 % 0.00 in
22:44 85.2 °F 68.2 °F 29.75 in Calm     57 % 0.00 in
22:49 84.8 °F 68.4 °F 29.75 in Calm     58 % 0.00 in
22:54 84.5 °F 68.6 °F 29.76 in Calm     59 % 0.00 in
22:59 83.8 °F 68.4 °F 29.76 in Calm     60 % 0.00 in
23:04 83.4 °F 68.1 °F 29.76 in SE 1.2 mph 1.2 mph 60 % 0.00 in
23:09 83.1 °F 67.8 °F 29.76 in ESE 2.3 mph 2.3 mph 60 % 0.00 in
23:14 83.2 °F 67.9 °F 29.76 in SE 2.3 mph 2.3 mph 60 % 0.00 in
23:19 83.3 °F 68.0 °F 29.76 in ESE 2.3 mph 2.3 mph 60 % 0.00 in
23:24 83.2 °F 67.4 °F 29.77 in SE 1.2 mph 1.2 mph 59 % 0.00 in
23:29 83.5 °F 67.7 °F 29.77 in ESE 1.2 mph 1.2 mph 59 % 0.00 in
23:34 83.9 °F 67.0 °F 29.77 in Calm     57 % 0.00 in
23:39 84.2 °F 66.8 °F 29.77 in East 1.2 mph   56 % 0.00 in
23:44 84.3 °F 66.9 °F 29.77 in Calm     56 % 0.00 in
23:49 84.4 °F 66.5 °F 29.77 in Calm     55 % 0.00 in
23:54 84.3 °F 66.9 °F 29.77 in Calm     56 % 0.00 in
23:59 84.4 °F 67.0 °F 29.77 in SE 1.2 mph   56 % 0.00 in
Park Place, Exeter, Tulare County, California, USA
Compliments of Weather Underground - 2.5 mb